Time;durP1;ratioP1;P1;durP2;ratioP2;P2;SDS_P1;SDS_P2;PMS_P1;PMS_P2;Temp;Humidity;BMP_temperature;BMP_pressure;BME280_temperature;BME280_humidity;BME280_pressure;Samples;Min_cycle;Max_cycle;Signal;HPM_P1;HPM_P2
2022/01/21 00:01:34;;;;;;;3.33;1.17;;;;;;;;;;5070447;28;20100;-70
2022/01/21 00:04:01;;;;;;;5.27;1.40;;;;;;;;;;5069540;28;20075;-70
2022/01/21 00:06:27;;;;;;;3.73;1.30;;;;;;;;;;5067614;28;20115;-70
2022/01/21 00:08:55;;;;;;;2.13;1.20;;;;;;;;;;5049344;28;20033;-70
2022/01/21 00:11:24;;;;;;;2.60;1.30;;;;;;;;;;5052423;28;20020;-70
2022/01/21 00:13:52;;;;;;;4.23;1.43;;;;;;;;;;5054520;28;20021;-70
2022/01/21 00:16:23;;;;;;;1.80;1.20;;;;;;;;;;5054458;28;20429;-70
2022/01/21 00:19:08;;;;;;;6.53;1.47;;;;;;;;;;5060424;28;20024;-70
2022/01/21 00:32:38;;;;;;;4.17;1.50;;;;;;;;;;5049591;28;20048;-69
2022/01/21 00:35:08;;;;;;;3.30;1.40;;;;;;;;;;5054187;28;20028;-69
2022/01/21 00:37:35;;;;;;;2.67;1.50;;;;;;;;;;5061849;28;20024;-69
2022/01/21 00:40:03;;;;;;;3.33;1.40;;;;;;;;;;5073936;28;20032;-68
2022/01/21 00:42:55;;;;;;;5.13;1.33;;;;;;;;;;5073329;28;20020;-68
2022/01/21 00:45:20;;;;;;;3.63;1.47;;;;;;;;;;5061558;28;20055;-69
2022/01/21 00:47:48;;;;;;;3.73;1.27;;;;;;;;;;5048840;28;20024;-69
2022/01/21 00:50:15;;;;;;;3.43;1.20;;;;;;;;;;5048444;28;20036;-68
2022/01/21 00:52:42;;;;;;;1.80;1.10;;;;;;;;;;5048725;28;20108;-69
2022/01/21 00:55:10;;;;;;;2.00;1.20;;;;;;;;;;5056531;28;20543;-68
2022/01/21 00:57:37;;;;;;;7.10;1.50;;;;;;;;;;5072807;28;20047;-68
2022/01/21 01:00:06;;;;;;;2.03;1.27;;;;;;;;;;5055512;28;20517;-68
2022/01/21 01:02:36;;;;;;;4.97;1.40;;;;;;;;;;5055125;28;20028;-68
2022/01/21 01:05:03;;;;;;;3.30;1.50;;;;;;;;;;5067316;28;20434;-68
2022/01/21 01:07:30;;;;;;;5.60;1.77;;;;;;;;;;5051312;28;20098;-68
2022/01/21 01:09:58;;;;;;;2.13;1.10;;;;;;;;;;5048407;28;20033;-69
2022/01/21 01:20:48;;;;;;;;;;;;;;;;;;4980817;28;20086;-68
2022/01/21 01:23:29;;;;;;;3.77;1.40;;;;;;;;;;4975618;28;19909;-68
2022/01/21 01:28:41;;;;;;;2.45;1.17;;;;;;;;;;5053388;28;20048;-68
2022/01/21 01:31:09;;;;;;;5.10;1.30;;;;;;;;;;5048338;28;20525;-68
2022/01/21 01:33:39;;;;;;;3.57;1.47;;;;;;;;;;5049712;28;20082;-68
2022/01/21 01:36:09;;;;;;;4.57;2.40;;;;;;;;;;5065303;28;20036;-68
2022/01/21 01:38:58;;;;;;;7.70;2.07;;;;;;;;;;5047762;28;20025;-68
2022/01/21 01:41:26;;;;;;;8.93;2.40;;;;;;;;;;5052294;28;20482;-68
2022/01/21 01:49:43;;;;;;;16.23;2.88;;;;;;;;;;5004917;28;19925;-68
2022/01/21 01:52:14;;;;;;;6.97;2.60;;;;;;;;;;5016556;28;20120;-68
2022/01/21 01:54:43;;;;;;;10.43;2.90;;;;;;;;;;5046007;28;20408;-68
2022/01/21 01:57:10;;;;;;;14.97;3.10;;;;;;;;;;5047979;28;20047;-68
2022/01/21 01:59:39;;;;;;;8.90;3.07;;;;;;;;;;5063383;28;20562;-68
2022/01/21 02:02:14;;;;;;;9.13;3.23;;;;;;;;;;5069178;28;20021;-68
2022/01/21 02:04:43;;;;;;;9.47;2.87;;;;;;;;;;5055934;28;20040;-67
2022/01/21 02:07:10;;;;;;;7.73;2.40;;;;;;;;;;5072163;28;20032;-68
2022/01/21 02:09:39;;;;;;;13.37;2.90;;;;;;;;;;5056254;28;20067;-68
2022/01/21 02:12:06;;;;;;;13.37;3.10;;;;;;;;;;5052046;28;20532;-68
2022/01/21 02:14:43;;;;;;;15.53;3.03;;;;;;;;;;5049276;28;20094;-68
2022/01/21 02:21:29;;;;;;;9.50;2.77;;;;;;;;;;5057165;28;20040;-68
2022/01/21 02:22:52;;;;;;;10.43;3.20;;;;;;;;;;5067440;28;20555;-68
2022/01/21 02:25:20;;;;;;;11.20;3.07;;;;;;;;;;5070849;28;20033;-67
2022/01/21 02:27:50;;;;;;;7.03;2.63;;;;;;;;;;5067899;28;20360;-68
2022/01/21 02:30:21;;;;;;;9.10;2.57;;;;;;;;;;5066768;28;20037;-68
2022/01/21 02:32:50;;;;;;;6.33;2.20;;;;;;;;;;5052052;28;20021;-67
2022/01/21 02:35:19;;;;;;;7.93;2.80;;;;;;;;;;5058057;28;20031;-67
2022/01/21 02:37:46;;;;;;;11.13;3.23;;;;;;;;;;5067804;28;20095;-67
2022/01/21 02:40:15;;;;;;;6.93;2.17;;;;;;;;;;5066911;28;20025;-68
2022/01/21 02:42:42;;;;;;;4.63;2.50;;;;;;;;;;5046205;28;20119;-68
2022/01/21 02:45:10;;;;;;;8.13;2.90;;;;;;;;;;5063771;28;20051;-67
2022/01/21 02:47:37;;;;;;;8.33;3.40;;;;;;;;;;5050643;28;20051;-67
2022/01/21 02:50:05;;;;;;;15.00;3.90;;;;;;;;;;5034521;28;20476;-68
2022/01/21 02:52:41;;;;;;;12.47;3.23;;;;;;;;;;5034188;28;20036;-68
2022/01/21 02:55:12;;;;;;;6.20;2.60;;;;;;;;;;5051579;28;20048;-68
2022/01/21 02:57:39;;;;;;;9.03;2.57;;;;;;;;;;5059584;28;20472;-67
2022/01/21 03:00:07;;;;;;;6.43;2.67;;;;;;;;;;5067416;28;20021;-68
2022/01/21 03:02:34;;;;;;;9.63;3.20;;;;;;;;;;5066638;28;20025;-67
2022/01/21 03:05:10;;;;;;;6.10;2.67;;;;;;;;;;5067880;28;20062;-68
2022/01/21 03:07:37;;;;;;;13.60;3.00;;;;;;;;;;5049894;28;20116;-68
2022/01/21 03:10:05;;;;;;;8.60;2.20;;;;;;;;;;5054687;28;20064;-67
2022/01/21 03:12:32;;;;;;;9.20;2.57;;;;;;;;;;5055624;28;20036;-67
2022/01/21 03:15:00;;;;;;;11.30;2.67;;;;;;;;;;5056051;28;20377;-67
2022/01/21 03:17:27;;;;;;;5.53;2.20;;;;;;;;;;5074061;28;20025;-68
2022/01/21 03:19:54;;;;;;;10.17;2.57;;;;;;;;;;5075539;28;20039;-67
2022/01/21 03:22:22;;;;;;;5.00;2.53;;;;;;;;;;5070698;28;20103;-68
2022/01/21 03:24:49;;;;;;;10.93;2.70;;;;;;;;;;5070295;28;20463;-67
2022/01/21 03:27:16;;;;;;;9.47;2.70;;;;;;;;;;5053709;28;20033;-67
2022/01/21 03:29:44;;;;;;;3.67;1.93;;;;;;;;;;5050164;28;20458;-67
2022/01/21 03:32:11;;;;;;;4.53;2.10;;;;;;;;;;5054344;28;20111;-67
2022/01/21 03:34:37;;;;;;;5.60;1.67;;;;;;;;;;5055121;28;20028;-67
2022/01/21 03:37:05;;;;;;;2.93;1.50;;;;;;;;;;5055062;28;20049;-67
2022/01/21 03:39:32;;;;;;;6.00;2.53;;;;;;;;;;5073002;28;20090;-67
2022/01/21 03:41:59;;;;;;;6.67;1.77;;;;;;;;;;5075156;28;20058;-67
2022/01/21 03:44:26;;;;;;;4.33;1.70;;;;;;;;;;5070922;28;20031;-67
2022/01/21 03:46:53;;;;;;;5.53;2.07;;;;;;;;;;5051923;28;20029;-67
2022/01/21 03:49:19;;;;;;;7.03;2.10;;;;;;;;;;5050037;28;20039;-67
2022/01/21 03:51:46;;;;;;;16.83;3.63;;;;;;;;;;5068958;28;20055;-67
2022/01/21 03:54:13;;;;;;;5.50;2.00;;;;;;;;;;5073394;28;20377;-68
2022/01/21 03:56:40;;;;;;;8.93;3.17;;;;;;;;;;5074524;28;21253;-67
2022/01/21 03:59:07;;;;;;;5.20;2.37;;;;;;;;;;5074903;28;20463;-67
2022/01/21 04:01:34;;;;;;;7.57;2.90;;;;;;;;;;5071541;28;20017;-67
2022/01/21 04:04:01;;;;;;;8.37;2.23;;;;;;;;;;5054749;28;20490;-67
2022/01/21 04:06:28;;;;;;;5.50;2.00;;;;;;;;;;5050765;28;20032;-67
2022/01/21 04:08:55;;;;;;;5.40;2.87;;;;;;;;;;5049688;28;20423;-67
2022/01/21 04:11:22;;;;;;;4.27;2.10;;;;;;;;;;5049452;28;20471;-67
2022/01/21 04:13:49;;;;;;;11.77;2.63;;;;;;;;;;5053525;28;20036;-67
2022/01/21 04:16:16;;;;;;;7.27;2.50;;;;;;;;;;5072169;28;20024;-67
2022/01/21 04:18:43;;;;;;;8.50;2.60;;;;;;;;;;5074414;28;20856;-67
2022/01/21 04:21:10;;;;;;;3.73;2.30;;;;;;;;;;5074408;28;20130;-67
2022/01/21 04:23:37;;;;;;;7.27;2.27;;;;;;;;;;5074313;28;20023;-68
2022/01/21 04:26:09;;;;;;;4.33;1.93;;;;;;;;;;5049977;28;20388;-67
2022/01/21 04:28:37;;;;;;;7.30;2.27;;;;;;;;;;5050283;28;20487;-67
2022/01/21 04:31:05;;;;;;;7.37;2.27;;;;;;;;;;5049236;28;20512;-67
2022/01/21 04:33:33;;;;;;;7.67;2.90;;;;;;;;;;5049242;28;20027;-67
2022/01/21 04:36:00;;;;;;;11.00;2.57;;;;;;;;;;5048950;28;20029;-67
2022/01/21 04:38:27;;;;;;;5.50;2.27;;;;;;;;;;5058429;28;20024;-67
2022/01/21 04:41:02;;;;;;;8.47;2.50;;;;;;;;;;5074055;28;20016;-67
2022/01/21 04:48:59;;;;;;;4.70;2.80;;;;;;;;;;5053718;28;20503;-67
2022/01/21 04:51:28;;;;;;;5.67;2.63;;;;;;;;;;5060808;28;20028;-67
2022/01/21 04:53:55;;;;;;;4.67;2.67;;;;;;;;;;5068744;28;20021;-68
2022/01/21 04:56:22;;;;;;;6.57;2.50;;;;;;;;;;5068821;28;20636;-67
2022/01/21 04:58:50;;;;;;;7.33;2.40;;;;;;;;;;5068672;28;20033;-67
2022/01/21 05:01:24;;;;;;;4.53;2.47;;;;;;;;;;5072869;28;20032;-67
2022/01/21 05:03:51;;;;;;;7.03;2.47;;;;;;;;;;5057125;28;20033;-67
2022/01/21 05:06:18;;;;;;;5.07;2.80;;;;;;;;;;5053492;28;20029;-68
2022/01/21 05:08:54;;;;;;;7.17;3.17;;;;;;;;;;5053434;28;20036;-67
2022/01/21 05:11:25;;;;;;;6.70;2.40;;;;;;;;;;5053656;28;20028;-66
2022/01/21 05:13:58;;;;;;;4.23;2.17;;;;;;;;;;5048276;28;20075;-66
2022/01/21 05:18:58;;;;;;;6.40;2.37;;;;;;;;;;5048166;28;20033;-66
2022/01/21 05:21:25;;;;;;;3.50;1.77;;;;;;;;;;5048392;28;20064;-66
2022/01/21 05:23:54;;;;;;;11.30;2.67;;;;;;;;;;5053151;28;20102;-66
2022/01/21 05:26:21;;;;;;;8.13;2.27;;;;;;;;;;5055158;28;20456;-67
2022/01/21 05:28:48;;;;;;;8.77;2.30;;;;;;;;;;5071936;28;20028;-66
2022/01/21 05:31:15;;;;;;;4.73;2.03;;;;;;;;;;5072890;28;20024;-66
2022/01/21 05:33:45;;;;;;;5.17;2.00;;;;;;;;;;5072996;28;20311;-66
2022/01/21 05:36:13;;;;;;;4.93;2.10;;;;;;;;;;5067593;28;20024;-66
2022/01/21 05:38:39;;;;;;;4.70;1.83;;;;;;;;;;5065815;28;20056;-66
2022/01/21 05:41:06;;;;;;;8.00;2.33;;;;;;;;;;5047649;28;20036;-66
2022/01/21 05:43:34;;;;;;;4.30;2.20;;;;;;;;;;5047778;28;20025;-66
2022/01/21 05:48:46;;;;;;;;;;;;;;;;;;5053209;28;20044;-66
2022/01/21 05:51:15;;;;;;;3.20;1.73;;;;;;;;;;5052755;28;19919;-66
2022/01/21 05:53:43;;;;;;;6.30;2.07;;;;;;;;;;5052461;28;20028;-67
2022/01/21 05:56:11;;;;;;;4.20;1.90;;;;;;;;;;5071708;28;20024;-66
2022/01/21 05:58:39;;;;;;;6.47;2.33;;;;;;;;;;5067681;28;20025;-66
2022/01/21 06:01:06;;;;;;;4.07;2.30;;;;;;;;;;5067652;28;20056;-66
2022/01/21 06:03:39;;;;;;;4.37;2.13;;;;;;;;;;5067528;28;20024;-66
2022/01/21 06:06:10;;;;;;;4.20;1.90;;;;;;;;;;5062560;28;20468;-66
2022/01/21 06:08:44;;;;;;;3.57;1.93;;;;;;;;;;5052579;28;20017;-67
2022/01/21 06:11:11;;;;;;;5.00;1.60;;;;;;;;;;5052186;28;20102;-66
2022/01/21 06:13:38;;;;;;;4.10;2.00;;;;;;;;;;5052563;28;20021;-66
2022/01/21 06:16:06;;;;;;;6.40;1.83;;;;;;;;;;5052268;28;20036;-66
2022/01/21 06:18:33;;;;;;;5.07;2.00;;;;;;;;;;5055727;28;20032;-66
2022/01/21 06:21:00;;;;;;;3.60;1.93;;;;;;;;;;5067357;28;20021;-66
2022/01/21 06:23:28;;;;;;;5.37;2.03;;;;;;;;;;5067037;28;20025;-66
2022/01/21 06:25:55;;;;;;;7.70;1.90;;;;;;;;;;5067161;28;20067;-66
2022/01/21 06:28:27;;;;;;;4.63;1.80;;;;;;;;;;5067128;28;20033;-65
2022/01/21 06:30:55;;;;;;;7.97;2.07;;;;;;;;;;5070579;28;20058;-66
2022/01/21 06:33:26;;;;;;;4.20;1.77;;;;;;;;;;5072244;28;20115;-66
2022/01/21 06:35:53;;;;;;;4.07;2.00;;;;;;;;;;5072147;28;20032;-65
2022/01/21 06:38:21;;;;;;;4.83;2.10;;;;;;;;;;5071954;28;20016;-65
2022/01/21 06:40:49;;;;;;;8.27;1.90;;;;;;;;;;5073945;28;20016;-65
2022/01/21 06:43:17;;;;;;;5.47;2.00;;;;;;;;;;5062535;28;20033;-65
2022/01/21 06:45:44;;;;;;;4.67;2.03;;;;;;;;;;5050978;28;20017;-65
2022/01/21 06:48:12;;;;;;;4.73;2.33;;;;;;;;;;5051050;28;20029;-65
2022/01/21 06:50:40;;;;;;;3.97;1.97;;;;;;;;;;5051141;28;20033;-66
2022/01/21 06:53:07;;;;;;;8.47;4.00;;;;;;;;;;5055716;28;20472;-65
2022/01/21 06:55:34;;;;;;;6.93;2.20;;;;;;;;;;5064981;28;20475;-66
2022/01/21 06:58:01;;;;;;;5.03;1.90;;;;;;;;;;5075468;28;20268;-66
2022/01/21 07:00:28;;;;;;;12.43;5.00;;;;;;;;;;5075919;28;20021;-65
2022/01/21 07:02:55;;;;;;;4.20;2.10;;;;;;;;;;5075334;28;20052;-65
2022/01/21 07:05:22;;;;;;;8.53;2.27;;;;;;;;;;5070807;28;20356;-66
2022/01/21 07:07:50;;;;;;;5.33;1.97;;;;;;;;;;5057105;28;20033;-66
2022/01/21 07:10:17;;;;;;;3.87;1.83;;;;;;;;;;5050242;28;20045;-66
2022/01/21 07:12:44;;;;;;;3.33;2.10;;;;;;;;;;5050727;28;20032;-66
2022/01/21 07:15:15;;;;;;;2.77;1.77;;;;;;;;;;5055556;28;20254;-65
2022/01/21 07:17:43;;;;;;;8.47;3.20;;;;;;;;;;5055409;28;20041;-65
2022/01/21 07:20:09;;;;;;;4.13;2.17;;;;;;;;;;5070314;28;20257;-66
2022/01/21 07:22:38;;;;;;;4.37;2.10;;;;;;;;;;5075652;28;20257;-65
2022/01/21 07:25:06;;;;;;;3.20;1.77;;;;;;;;;;5074734;28;20751;-65
2022/01/21 07:27:33;;;;;;;5.10;2.00;;;;;;;;;;5070341;28;20258;-66
2022/01/21 07:30:00;;;;;;;2.30;1.50;;;;;;;;;;5070244;28;20285;-65
2022/01/21 07:32:27;;;;;;;3.33;1.63;;;;;;;;;;5053946;28;20274;-64
2022/01/21 07:34:54;;;;;;;5.77;1.87;;;;;;;;;;5050129;28;20262;-65
2022/01/21 07:37:24;;;;;;;4.40;2.00;;;;;;;;;;5054802;28;20254;-65
2022/01/21 07:39:52;;;;;;;3.70;1.73;;;;;;;;;;5054840;28;20257;-65
2022/01/21 07:42:20;;;;;;;4.97;2.07;;;;;;;;;;5055247;28;20254;-65
2022/01/21 07:44:49;;;;;;;5.83;2.13;;;;;;;;;;5071379;28;20265;-65
2022/01/21 07:47:16;;;;;;;2.70;1.40;;;;;;;;;;5054959;28;20258;-65
2022/01/21 07:49:44;;;;;;;7.83;2.00;;;;;;;;;;5049804;28;20581;-65
2022/01/21 07:52:11;;;;;;;3.43;1.80;;;;;;;;;;5048870;28;20755;-65
2022/01/21 07:54:39;;;;;;;3.43;1.97;;;;;;;;;;5049152;28;20307;-67
2022/01/21 07:57:08;;;;;;;8.27;2.37;;;;;;;;;;5069823;28;20264;-65
2022/01/21 07:59:37;;;;;;;6.20;1.90;;;;;;;;;;5074406;28;20258;-64
2022/01/21 08:02:05;;;;;;;3.30;1.70;;;;;;;;;;5075063;28;20285;-64
2022/01/21 08:04:32;;;;;;;3.83;2.30;;;;;;;;;;5074925;28;20256;-65
2022/01/21 08:06:59;;;;;;;4.50;1.73;;;;;;;;;;5073504;28;20257;-64
2022/01/21 08:09:28;;;;;;;2.87;1.67;;;;;;;;;;5054110;28;20293;-65
2022/01/21 08:12:00;;;;;;;2.47;1.40;;;;;;;;;;5049542;28;20266;-65
2022/01/21 08:14:28;;;;;;;4.10;1.30;;;;;;;;;;5049651;28;20640;-64
2022/01/21 08:16:55;;;;;;;2.70;1.60;;;;;;;;;;5031665;28;20669;-64
2022/01/21 08:19:22;;;;;;;2.53;1.40;;;;;;;;;;5055479;28;20612;-65
2022/01/21 08:21:49;;;;;;;3.77;1.60;;;;;;;;;;5074038;28;20284;-65
2022/01/21 08:24:16;;;;;;;2.83;1.60;;;;;;;;;;5074442;28;20263;-64
2022/01/21 08:26:43;;;;;;;5.57;2.23;;;;;;;;;;5074028;28;20275;-64
2022/01/21 08:29:10;;;;;;;2.70;1.40;;;;;;;;;;5072482;28;20781;-64
2022/01/21 08:31:37;;;;;;;2.50;1.40;;;;;;;;;;5073975;28;20345;-64
2022/01/21 08:34:04;;;;;;;3.27;1.63;;;;;;;;;;5069232;28;20257;-65
2022/01/21 08:36:30;;;;;;;2.50;1.47;;;;;;;;;;5069020;28;20435;-64
2022/01/21 08:39:02;;;;;;;2.77;1.20;;;;;;;;;;5068795;28;20288;-64
2022/01/21 08:41:29;;;;;;;2.97;1.60;;;;;;;;;;5049204;28;20284;-65
2022/01/21 08:43:56;;;;;;;3.07;1.47;;;;;;;;;;5053258;28;20748;-65
2022/01/21 08:46:26;;;;;;;7.87;1.37;;;;;;;;;;5059752;28;20262;-64
2022/01/21 08:48:53;;;;;;;2.33;1.40;;;;;;;;;;5054024;28;20258;-64
2022/01/21 08:51:36;;;;;;;3.43;1.40;;;;;;;;;;5053749;28;20276;-64
2022/01/21 08:54:04;;;;;;;2.97;1.43;;;;;;;;;;5053483;28;20293;-64
2022/01/21 08:56:31;;;;;;;2.90;1.70;;;;;;;;;;5048590;28;20290;-65
2022/01/21 08:58:58;;;;;;;4.83;1.70;;;;;;;;;;5048694;28;20254;-64
2022/01/21 09:01:25;;;;;;;3.87;1.83;;;;;;;;;;5048522;28;20281;-66
2022/01/21 09:03:53;;;;;;;4.70;2.00;;;;;;;;;;5057549;28;20273;-65
2022/01/21 09:06:20;;;;;;;3.57;1.67;;;;;;;;;;5073418;28;20257;-64
2022/01/21 09:08:48;;;;;;;4.03;1.80;;;;;;;;;;5073403;28;20253;-64
2022/01/21 09:11:15;;;;;;;4.40;2.03;;;;;;;;;;5073430;28;20342;-65
2022/01/21 09:13:43;;;;;;;4.03;1.90;;;;;;;;;;5065649;28;20624;-64
2022/01/21 09:16:11;;;;;;;4.40;1.93;;;;;;;;;;5053042;28;20258;-64
2022/01/21 09:18:48;;;;;;;2.33;1.40;;;;;;;;;;5048129;28;20356;-64
2022/01/21 09:21:16;;;;;;;3.37;1.87;;;;;;;;;;5048227;28;20345;-64
2022/01/21 09:23:43;;;;;;;3.13;1.67;;;;;;;;;;5048193;28;20269;-65
2022/01/21 09:26:10;;;;;;;5.13;2.17;;;;;;;;;;5058591;28;20623;-64
2022/01/21 09:28:37;;;;;;;4.17;2.33;;;;;;;;;;5073073;28;20336;-64
2022/01/21 09:31:04;;;;;;;5.83;2.20;;;;;;;;;;5072955;28;20365;-64
2022/01/21 09:33:32;;;;;;;5.20;2.40;;;;;;;;;;5072992;28;20261;-64
2022/01/21 09:35:59;;;;;;;7.27;3.27;;;;;;;;;;5072829;28;20253;-64
2022/01/21 09:38:26;;;;;;;6.30;3.27;;;;;;;;;;5058264;28;20298;-64
2022/01/21 09:40:54;;;;;;;6.70;3.20;;;;;;;;;;5047901;28;20262;-64
2022/01/21 09:43:22;;;;;;;7.13;3.03;;;;;;;;;;5047796;28;20273;-64
2022/01/21 09:45:52;;;;;;;6.57;3.17;;;;;;;;;;5047856;28;20261;-65
2022/01/21 09:48:25;;;;;;;7.93;4.03;;;;;;;;;;5048854;28;20368;-64
2022/01/21 09:50:54;;;;;;;8.10;3.50;;;;;;;;;;5052721;28;20286;-65
2022/01/21 09:53:28;;;;;;;4.93;3.13;;;;;;;;;;5052380;28;20740;-65
2022/01/21 09:55:57;;;;;;;6.33;3.30;;;;;;;;;;5052736;28;20246;-64
2022/01/21 09:58:24;;;;;;;9.73;4.03;;;;;;;;;;5062088;28;20616;-64
2022/01/21 10:00:51;;;;;;;5.77;3.20;;;;;;;;;;5071977;28;20249;-65
2022/01/21 10:03:19;;;;;;;3.97;2.37;;;;;;;;;;5067201;28;20275;-64
2022/01/21 10:05:47;;;;;;;3.97;2.40;;;;;;;;;;5064320;28;20347;-64
2022/01/21 10:08:16;;;;;;;5.70;3.47;;;;;;;;;;5047494;28;20312;-64
2022/01/21 10:10:43;;;;;;;4.77;2.90;;;;;;;;;;5047349;28;20374;-64
2022/01/21 10:13:11;;;;;;;5.87;2.80;;;;;;;;;;5051956;28;20262;-65
2022/01/21 10:15:38;;;;;;;4.07;2.00;;;;;;;;;;5052118;28;20243;-64
2022/01/21 10:18:13;;;;;;;6.97;2.87;;;;;;;;;;5072571;28;20261;-64
2022/01/21 10:21:00;;;;;;;4.78;2.60;;;;;;;;;;5069639;28;20250;-64
2022/01/21 10:23:28;;;;;;;6.17;3.13;;;;;;;;;;5050191;28;20453;-64
2022/01/21 10:26:01;;;;;;;4.43;2.87;;;;;;;;;;5047011;28;20292;-64
2022/01/21 10:28:29;;;;;;;5.33;2.83;;;;;;;;;;5046992;28;20293;-65
2022/01/21 10:31:11;;;;;;;6.80;2.00;;;;;;;;;;5047420;28;20401;-64
2022/01/21 10:33:40;;;;;;;3.53;2.10;;;;;;;;;;5048579;28;20270;-65
2022/01/21 10:36:14;;;;;;;3.57;2.07;;;;;;;;;;5051747;28;20356;-64
2022/01/21 10:38:43;;;;;;;8.30;2.20;;;;;;;;;;5052209;28;20294;-64
2022/01/21 10:41:11;;;;;;;3.77;2.17;;;;;;;;;;5034238;28;20430;-64
2022/01/21 10:43:38;;;;;;;3.33;1.97;;;;;;;;;;5058702;28;20269;-64
2022/01/21 10:46:14;;;;;;;3.03;1.60;;;;;;;;;;5057577;28;20337;-65
2022/01/21 10:48:59;;;;;;;3.33;1.83;;;;;;;;;;5047035;28;20250;-65
2022/01/21 10:51:28;;;;;;;3.75;1.70;;;;;;;;;;5047119;28;20360;-65
2022/01/21 10:53:56;;;;;;;6.00;2.20;;;;;;;;;;5047130;28;20048;-64
2022/01/21 10:56:24;;;;;;;6.83;2.27;;;;;;;;;;5061510;28;20289;-65
2022/01/21 10:58:52;;;;;;;3.37;1.77;;;;;;;;;;5072013;28;20315;-64
2022/01/21 11:01:26;;;;;;;4.07;2.00;;;;;;;;;;5071830;28;20260;-64
2022/01/21 11:04:01;;;;;;;5.47;2.03;;;;;;;;;;5071904;28;20754;-64
2022/01/21 11:06:44;;;;;;;3.50;2.03;;;;;;;;;;5071405;28;20751;-65
2022/01/21 11:09:28;;;;;;;4.20;2.17;;;;;;;;;;5047516;28;20041;-65
2022/01/21 11:12:08;;;;;;;6.57;1.90;;;;;;;;;;5046725;28;20265;-64
2022/01/21 11:14:35;;;;;;;5.47;2.80;;;;;;;;;;5046836;28;20265;-65
2022/01/21 11:17:15;;;;;;;5.10;2.93;;;;;;;;;;5046697;28;20354;-65
2022/01/21 11:20:01;;;;;;;7.93;3.40;;;;;;;;;;5057949;28;20736;-65
2022/01/21 11:22:29;;;;;;;5.93;2.90;;;;;;;;;;5071613;28;20264;-64
2022/01/21 11:24:59;;;;;;;4.03;2.50;;;;;;;;;;5071876;28;20260;-64
2022/01/21 11:27:26;;;;;;;4.77;2.80;;;;;;;;;;5073498;28;20691;-64
2022/01/21 11:29:54;;;;;;;6.73;3.23;;;;;;;;;;5074199;28;20289;-64
2022/01/21 11:32:21;;;;;;;6.00;3.20;;;;;;;;;;5058397;28;20273;-64
2022/01/21 11:34:49;;;;;;;5.37;3.23;;;;;;;;;;5050304;28;20798;-64
2022/01/21 11:37:15;;;;;;;6.20;3.70;;;;;;;;;;5050205;28;20258;-64
2022/01/21 11:39:43;;;;;;;6.43;3.50;;;;;;;;;;5050788;28;21336;-64
2022/01/21 11:42:10;;;;;;;5.27;3.20;;;;;;;;;;5055282;28;20651;-64
2022/01/21 11:44:41;;;;;;;7.80;3.50;;;;;;;;;;5069284;28;20758;-64
2022/01/21 11:49:41;;;;;;;8.07;4.13;;;;;;;;;;5054695;28;20293;-64
2022/01/21 11:52:26;;;;;;;6.37;4.43;;;;;;;;;;5053154;28;20269;-64
2022/01/21 11:54:54;;;;;;;8.52;4.28;;;;;;;;;;5049842;28;20265;-65
2022/01/21 11:57:31;;;;;;;6.13;4.30;;;;;;;;;;5049674;28;20025;-64
2022/01/21 12:02:27;;;;;;;8.23;3.80;;;;;;;;;;5051656;28;20269;-64
2022/01/21 12:04:57;;;;;;;6.50;2.77;;;;;;;;;;5054713;28;20262;-63
2022/01/21 12:07:26;;;;;;;11.40;3.50;;;;;;;;;;5056798;28;20265;-64
2022/01/21 12:09:57;;;;;;;5.87;2.67;;;;;;;;;;5074420;28;20301;-64
2022/01/21 12:12:25;;;;;;;5.60;2.97;;;;;;;;;;5074620;28;20253;-64
2022/01/21 12:15:00;;;;;;;5.47;2.50;;;;;;;;;;5071874;28;20261;-64
2022/01/21 12:17:46;;;;;;;8.35;2.22;;;;;;;;;;5069732;28;20663;-65
2022/01/21 12:20:13;;;;;;;4.10;2.20;;;;;;;;;;5059138;28;20033;-65
2022/01/21 12:22:40;;;;;;;5.73;2.20;;;;;;;;;;5049557;28;20258;-64
2022/01/21 12:25:15;;;;;;;5.10;2.40;;;;;;;;;;5052120;28;20266;-64
2022/01/21 12:28:02;;;;;;;7.68;3.25;;;;;;;;;;5054529;28;20250;-64
2022/01/21 12:30:32;;;;;;;5.63;2.43;;;;;;;;;;5053644;28;20029;-63
2022/01/21 12:33:00;;;;;;;7.10;2.50;;;;;;;;;;5071355;28;20578;-64
2022/01/21 12:35:28;;;;;;;5.00;1.90;;;;;;;;;;5074354;28;20257;-63
2022/01/21 12:41:04;;;;;;;4.13;2.10;;;;;;;;;;5037391;28;20269;-64
2022/01/21 12:43:38;;;;;;;3.50;1.83;;;;;;;;;;5063960;28;20285;-64
2022/01/21 12:46:06;;;;;;;7.63;2.07;;;;;;;;;;5049287;28;20361;-64
2022/01/21 12:48:37;;;;;;;4.33;1.93;;;;;;;;;;5053323;28;20266;-64
2022/01/21 12:51:20;;;;;;;7.43;2.53;;;;;;;;;;5053892;28;20297;-64
2022/01/21 12:56:42;;;;;;;4.40;1.90;;;;;;;;;;5068742;28;20300;-64
2022/01/21 12:59:15;;;;;;;6.47;2.80;;;;;;;;;;5070888;28;20286;-64
2022/01/21 13:01:42;;;;;;;10.97;2.43;;;;;;;;;;5068541;28;20285;-64
2022/01/21 13:04:27;;;;;;;10.37;2.23;;;;;;;;;;5068596;28;20311;-64
2022/01/21 13:07:01;;;;;;;5.75;1.92;;;;;;;;;;5068486;28;20253;-63
2022/01/21 13:09:37;;;;;;;7.47;2.28;;;;;;;;;;5052179;28;20036;-64
2022/01/21 13:12:11;;;;;;;7.53;3.10;;;;;;;;;;5053473;28;20025;-63
2022/01/21 13:14:43;;;;;;;4.40;2.40;;;;;;;;;;5053174;28;20688;-64
2022/01/21 13:17:12;;;;;;;6.83;2.17;;;;;;;;;;5053369;28;20258;-64
2022/01/21 13:20:08;;;;;;;4.60;2.50;;;;;;;;;;5072233;28;20766;-63
2022/01/21 13:22:38;;;;;;;;;;;;;;;;;;5047431;28;20277;-64
2022/01/21 13:25:14;;;;;;;10.60;2.10;;;;;;;;;;5056129;28;19904;-63
2022/01/21 13:27:50;;;;;;;6.47;2.30;;;;;;;;;;5048471;28;20740;-64
2022/01/21 13:30:20;;;;;;;4.30;2.20;;;;;;;;;;5048088;28;20322;-64
2022/01/21 13:32:58;;;;;;;8.27;1.97;;;;;;;;;;5052611;28;20277;-63
2022/01/21 13:35:27;;;;;;;6.90;2.40;;;;;;;;;;5066458;28;20266;-64
2022/01/21 13:38:13;;;;;;;8.80;3.33;;;;;;;;;;5073073;28;20740;-64
2022/01/21 13:40:42;;;;;;;9.77;3.00;;;;;;;;;;5072363;28;20267;-63
2022/01/21 13:43:10;;;;;;;11.40;3.00;;;;;;;;;;5070939;28;20264;-63
2022/01/21 13:45:39;;;;;;;4.70;2.50;;;;;;;;;;5060146;28;20701;-63
2022/01/21 13:48:07;;;;;;;5.50;2.37;;;;;;;;;;5065980;28;20269;-63
2022/01/21 13:50:35;;;;;;;7.07;3.00;;;;;;;;;;5066671;28;20368;-64
2022/01/21 13:53:04;;;;;;;11.37;3.27;;;;;;;;;;5069354;28;20728;-65
2022/01/21 13:55:42;;;;;;;12.40;3.40;;;;;;;;;;5057372;28;20418;-64
2022/01/21 13:58:30;;;;;;;4.67;3.03;;;;;;;;;;5052918;28;20286;-64
2022/01/21 14:00:57;;;;;;;6.60;3.77;;;;;;;;;;5052652;28;20246;-64
2022/01/21 14:03:26;;;;;;;5.47;3.03;;;;;;;;;;5052148;28;20277;-64
2022/01/21 14:06:02;;;;;;;5.50;2.83;;;;;;;;;;5065845;28;20744;-63
2022/01/21 14:08:32;;;;;;;7.57;3.42;;;;;;;;;;5067278;28;20266;-63
2022/01/21 14:11:02;;;;;;;6.23;3.20;;;;;;;;;;5048776;28;20444;-64
2022/01/21 14:13:31;;;;;;;9.20;3.57;;;;;;;;;;5047089;28;20270;-63
2022/01/21 14:16:03;;;;;;;8.90;3.63;;;;;;;;;;5050488;28;20250;-64
2022/01/21 14:18:33;;;;;;;6.80;3.80;;;;;;;;;;5053061;28;20737;-64
2022/01/21 14:21:04;;;;;;;8.80;4.57;;;;;;;;;;5072599;28;20359;-63
2022/01/21 14:23:33;;;;;;;7.67;3.57;;;;;;;;;;5072532;28;20308;-63
2022/01/21 14:26:04;;;;;;;8.47;3.60;;;;;;;;;;5053255;28;20301;-63
2022/01/21 14:28:40;;;;;;;9.03;3.57;;;;;;;;;;5048144;28;20270;-63
2022/01/21 14:31:08;;;;;;;11.43;4.50;;;;;;;;;;5047242;28;20297;-63
2022/01/21 14:33:42;;;;;;;5.97;4.10;;;;;;;;;;5047483;28;20345;-63
2022/01/21 14:36:13;;;;;;;8.80;4.65;;;;;;;;;;5066023;28;20280;-63
2022/01/21 14:38:46;;;;;;;7.60;4.30;;;;;;;;;;5071652;28;20031;-63
2022/01/21 14:41:21;;;;;;;10.37;4.80;;;;;;;;;;5072030;28;20024;-64
2022/01/21 14:43:52;;;;;;;9.57;4.03;;;;;;;;;;5072194;28;20028;-63
2022/01/21 14:46:26;;;;;;;6.33;4.23;;;;;;;;;;5059988;28;20021;-64
2022/01/21 14:49:00;;;;;;;8.37;4.30;;;;;;;;;;5071902;28;20036;-63
2022/01/21 14:51:37;;;;;;;6.18;3.75;;;;;;;;;;5067255;28;20120;-63
2022/01/21 14:54:12;;;;;;;6.33;3.90;;;;;;;;;;5067067;28;20419;-64
2022/01/21 14:56:40;;;;;;;6.97;4.50;;;;;;;;;;5067066;28;20032;-63
2022/01/21 14:59:13;;;;;;;11.47;5.77;;;;;;;;;;5057406;28;20082;-63
2022/01/21 15:01:57;;;;;;;7.30;4.70;;;;;;;;;;5054227;28;20437;-64
2022/01/21 15:04:24;;;;;;;10.33;6.17;;;;;;;;;;5055987;28;20036;-63
2022/01/21 15:07:12;;;;;;;12.23;6.83;;;;;;;;;;5055528;28;20025;-64
2022/01/21 15:09:47;;;;;;;7.80;5.93;;;;;;;;;;5055591;28;20040;-64
2022/01/21 15:15:31;;;;;;;9.13;6.80;;;;;;;;;;5028911;28;20036;-64
2022/01/21 15:17:59;;;;;;;14.60;7.50;;;;;;;;;;5070697;28;20432;-64
2022/01/21 15:20:32;;;;;;;14.13;7.43;;;;;;;;;;5070736;28;20466;-64
2022/01/21 15:23:00;;;;;;;14.33;6.37;;;;;;;;;;5066015;28;20029;-64
2022/01/21 15:25:27;;;;;;;9.57;6.50;;;;;;;;;;5055542;28;20028;-64
2022/01/21 15:27:54;;;;;;;8.53;6.37;;;;;;;;;;5055481;28;20039;-64
2022/01/21 15:30:23;;;;;;;13.60;7.40;;;;;;;;;;5055387;28;20032;-64
2022/01/21 15:32:51;;;;;;;13.27;8.93;;;;;;;;;;5055448;28;20025;-65
2022/01/21 15:35:18;;;;;;;22.60;8.30;;;;;;;;;;5059415;28;20032;-65
2022/01/21 15:37:46;;;;;;;13.77;9.47;;;;;;;;;;5070231;28;20021;-65
2022/01/21 15:40:12;;;;;;;12.23;8.00;;;;;;;;;;5070226;28;20111;-64
2022/01/21 15:42:41;;;;;;;11.80;8.37;;;;;;;;;;5068415;28;20042;-64
2022/01/21 15:45:08;;;;;;;11.10;8.40;;;;;;;;;;5070575;28;20024;-65
2022/01/21 15:47:35;;;;;;;12.77;7.93;;;;;;;;;;5055065;28;20025;-65
2022/01/21 15:50:02;;;;;;;18.40;8.13;;;;;;;;;;5054684;28;20086;-65
2022/01/21 15:52:29;;;;;;;11.47;8.20;;;;;;;;;;5059280;28;20074;-65
2022/01/21 15:54:57;;;;;;;12.57;7.50;;;;;;;;;;5075117;28;20025;-65